createdAt,value
2024-02-15T00:00:37.723Z,62.13
2024-02-15T00:03:29.772Z,64.06
2024-02-15T00:06:01.767Z,56.40
2024-02-15T00:08:35.173Z,54.64
2024-02-15T00:11:07.329Z,56.78
2024-02-15T00:13:39.304Z,58.91
2024-02-15T00:16:16.153Z,60.91
2024-02-15T00:18:48.286Z,64.57
2024-02-15T00:21:20.351Z,59.71
2024-02-15T00:23:52.417Z,52.63
2024-02-15T00:26:24.297Z,53.93
2024-02-15T00:28:56.212Z,56.17
2024-02-15T00:31:28.138Z,58.63
2024-02-15T00:34:00.853Z,60.27
2024-02-15T00:36:34.682Z,61.87
2024-02-15T00:39:07.366Z,63.71
2024-02-15T00:41:42.876Z,57.02
2024-02-15T00:44:15.588Z,54.50
2024-02-15T00:46:49.128Z,57.07
2024-02-15T00:49:22.252Z,59.80
2024-02-15T00:51:54.500Z,61.62
2024-02-15T00:54:26.988Z,64.14
2024-02-15T00:56:58.918Z,61.29
2024-02-15T00:59:30.876Z,54.28
2024-02-15T01:02:03.547Z,54.03
2024-02-15T01:04:36.562Z,56.95
2024-02-15T01:07:09.477Z,60.37
2024-02-15T01:09:41.611Z,62.96
2024-02-15T01:12:13.620Z,62.20
2024-02-15T01:14:45.569Z,55.59
2024-02-15T01:17:18.335Z,57.91
2024-02-15T01:19:50.351Z,62.27
2024-02-15T01:22:24.992Z,64.70
2024-02-15T01:24:58.275Z,58.79
2024-02-15T01:27:31.447Z,56.10
2024-02-15T01:30:03.591Z,60.01
2024-02-15T01:32:35.593Z,64.62
2024-02-15T01:35:09.058Z,61.03
2024-02-15T01:37:41.013Z,56.88
2024-02-15T01:40:14.312Z,59.08
2024-02-15T01:42:51.037Z,63.38
2024-02-15T01:45:23.455Z,64.36
2024-02-15T01:47:57.074Z,59.38
2024-02-15T01:50:29.863Z,57.37
2024-02-15T01:53:04.534Z,60.12
2024-02-15T01:55:37.124Z,64.88
2024-02-15T01:58:09.590Z,61.23
2024-02-15T02:00:42.050Z,56.58
2024-02-15T02:03:15.629Z,58.90
2024-02-15T02:05:48.522Z,61.45
2024-02-15T02:08:20.476Z,66.27
2024-02-15T02:10:52.703Z,62.15
2024-02-15T02:13:25.911Z,57.24
2024-02-15T02:15:58.265Z,57.25
2024-02-15T02:18:30.269Z,60.98
2024-02-15T02:21:02.377Z,65.23
2024-02-15T02:23:35.313Z,64.24
2024-02-15T02:26:07.362Z,59.10
2024-02-15T02:28:39.509Z,55.30
2024-02-15T02:31:13.133Z,58.00
2024-02-15T02:33:49.840Z,61.53
2024-02-15T02:36:22.867Z,65.73
2024-02-15T02:38:55.717Z,62.83
2024-02-15T02:41:27.595Z,57.35
2024-02-15T02:44:00.657Z,57.31
2024-02-15T02:46:32.570Z,60.74
2024-02-15T02:49:04.619Z,64.20
2024-02-15T02:51:36.714Z,63.64
2024-02-15T02:54:08.712Z,59.03
2024-02-15T02:56:41.070Z,55.62
2024-02-15T02:59:13.937Z,57.51
2024-02-15T03:01:45.852Z,59.81
2024-02-15T03:04:19.374Z,65.56
2024-02-15T03:06:51.345Z,63.25
2024-02-15T03:09:24.107Z,57.79
2024-02-15T03:11:56.079Z,57.45
2024-02-15T03:14:28.321Z,60.64
2024-02-15T03:17:01.051Z,64.88
2024-02-15T03:19:33.380Z,61.03
2024-02-15T03:22:05.495Z,56.65
2024-02-15T03:24:37.567Z,59.18
2024-02-15T03:27:10.449Z,62.82
2024-02-15T03:29:42.392Z,64.40
2024-02-15T03:32:14.723Z,59.51
2024-02-15T03:34:46.736Z,56.20
2024-02-15T03:37:19.509Z,58.47
2024-02-15T03:39:51.393Z,61.27
2024-02-15T03:42:23.307Z,66.00
2024-02-15T03:44:55.861Z,62.31
2024-02-15T03:47:30.492Z,57.11
2024-02-15T03:50:02.585Z,57.31
2024-02-15T03:52:34.748Z,60.48
2024-02-15T03:55:08.922Z,65.56
2024-02-15T03:57:42.612Z,62.00
2024-02-15T04:00:17.026Z,56.97
2024-02-15T04:02:50.584Z,57.62
2024-02-15T04:05:24.553Z,60.44
2024-02-15T04:07:57.281Z,65.43
2024-02-15T04:10:29.168Z,62.10
2024-02-15T04:13:01.065Z,56.86
2024-02-15T04:15:34.996Z,57.32
2024-02-15T04:18:07.636Z,60.66
2024-02-15T04:20:39.556Z,64.98
2024-02-15T04:23:11.762Z,61.71
2024-02-15T04:25:45.492Z,56.92
2024-02-15T04:28:17.430Z,57.73
2024-02-15T04:30:50.091Z,61.62
2024-02-15T04:33:22.209Z,66.09
2024-02-15T04:35:54.184Z,63.46
2024-02-15T04:38:26.790Z,57.71
2024-02-15T04:41:01.562Z,57.43
2024-02-15T04:43:34.395Z,60.73
2024-02-15T04:46:08.770Z,64.45
2024-02-15T04:48:43.153Z,64.48
2024-02-15T04:51:15.659Z,59.50
2024-02-15T04:53:49.526Z,55.68
2024-02-15T04:56:22.376Z,57.99
2024-02-15T04:58:55.918Z,60.55
2024-02-15T05:01:28.172Z,65.17
2024-02-15T05:04:00.126Z,63.67
2024-02-15T05:06:33.700Z,57.66
2024-02-15T05:09:08.820Z,57.34
2024-02-15T05:11:43.036Z,60.69
2024-02-15T05:14:20.719Z,65.49
2024-02-15T05:16:53.262Z,60.81
2024-02-15T05:19:25.259Z,56.77
2024-02-15T05:21:57.228Z,58.16
2024-02-15T05:24:29.990Z,61.01
2024-02-15T05:27:05.833Z,65.72
2024-02-15T05:29:38.407Z,63.58
2024-02-15T05:32:11.997Z,58.34
2024-02-15T05:34:44.028Z,55.17
2024-02-15T05:37:16.985Z,57.19
2024-02-15T05:39:52.777Z,59.88
2024-02-15T05:42:25.368Z,64.38
2024-02-15T05:44:57.404Z,61.91
2024-02-15T05:47:29.342Z,56.73
2024-02-15T05:50:02.128Z,56.44
2024-02-15T05:52:34.221Z,59.46
2024-02-15T05:55:07.066Z,63.36
2024-02-15T05:57:38.928Z,64.15
2024-02-15T06:00:21.270Z,57.73
2024-02-15T06:02:56.256Z,55.77
2024-02-15T06:05:28.947Z,58.70
2024-02-15T06:08:01.205Z,60.73
2024-02-15T06:10:33.563Z,65.26
2024-02-15T06:13:05.671Z,62.72
2024-02-15T06:15:37.565Z,56.58
2024-02-15T06:18:13.425Z,56.75
2024-02-15T06:20:47.599Z,59.88
2024-02-15T06:23:19.697Z,64.07
2024-02-15T06:25:54.418Z,63.79
2024-02-15T06:28:40.582Z,58.63
2024-02-15T06:31:31.691Z,55.47
2024-02-15T06:34:23.394Z,58.03
2024-02-15T06:37:15.803Z,61.90
2024-02-15T06:39:47.758Z,64.98
2024-02-15T06:42:21.631Z,59.13
2024-02-15T06:44:53.828Z,55.17
2024-02-15T06:47:26.236Z,57.11
2024-02-15T06:49:58.137Z,59.68
2024-02-15T06:52:30.472Z,63.77
2024-02-15T06:55:02.338Z,63.73
2024-02-15T06:57:36.826Z,56.93
2024-02-15T07:00:16.285Z,56.23
2024-02-15T07:02:50.706Z,58.35
2024-02-15T07:05:24.769Z,60.70
2024-02-15T07:07:57.989Z,66.25
2024-02-15T07:10:32.780Z,62.89
2024-02-15T07:13:05.383Z,56.58
2024-02-15T07:15:39.485Z,56.51
2024-02-15T07:18:12.099Z,59.60
2024-02-15T07:20:44.238Z,63.36
2024-02-15T07:23:16.528Z,63.12
2024-02-15T07:25:50.300Z,57.43
2024-02-15T07:28:22.984Z,57.33
2024-02-15T07:30:57.331Z,59.26
2024-02-15T07:33:30.342Z,62.59
2024-02-15T07:36:02.525Z,65.19
2024-02-15T07:38:36.080Z,59.21
2024-02-15T07:41:08.059Z,55.32
2024-02-15T07:43:40.827Z,57.32
2024-02-15T07:46:17.606Z,59.52
2024-02-15T07:48:50.796Z,62.10
2024-02-15T07:51:24.246Z,65.05
2024-02-15T07:53:56.205Z,61.27
2024-02-15T07:56:28.185Z,55.28
2024-02-15T07:59:00.112Z,55.34
2024-02-15T08:01:32.713Z,58.41
2024-02-15T08:04:05.005Z,60.46
2024-02-15T08:06:38.399Z,63.88
2024-02-15T08:09:15.370Z,60.96
2024-02-15T08:11:47.636Z,54.99
2024-02-15T08:14:21.936Z,55.43
2024-02-15T08:16:53.930Z,58.59
2024-02-15T08:19:26.177Z,60.73
2024-02-15T08:21:58.337Z,63.83
2024-02-15T08:24:30.935Z,58.07
2024-02-15T08:27:02.822Z,56.13
2024-02-15T08:29:35.254Z,59.46
2024-02-15T08:32:09.244Z,63.56
2024-02-15T08:34:41.260Z,61.07
2024-02-15T08:37:13.312Z,54.95
2024-02-15T08:39:46.206Z,56.21
2024-02-15T08:42:21.631Z,59.94
2024-02-15T08:44:53.901Z,63.15
2024-02-15T08:47:25.773Z,62.59
2024-02-15T08:49:57.756Z,56.58
2024-02-15T08:52:29.686Z,56.63
2024-02-15T08:55:02.423Z,59.44
2024-02-15T08:57:34.483Z,62.99
2024-02-15T09:00:15.426Z,62.27
2024-02-15T09:02:48.428Z,55.60
2024-02-15T09:05:20.666Z,57.56
2024-02-15T09:07:52.954Z,60.00
2024-02-15T09:10:25.284Z,62.46
2024-02-15T09:12:57.601Z,64.21
2024-02-15T09:15:32.257Z,56.59
2024-02-15T09:18:04.519Z,56.89
2024-02-15T09:20:38.824Z,60.37
2024-02-15T09:23:13.265Z,62.89
2024-02-15T09:25:45.864Z,58.20
2024-02-15T09:28:20.669Z,56.70
2024-02-15T09:30:53.508Z,59.51
2024-02-15T09:33:25.415Z,62.56
2024-02-15T09:35:57.709Z,63.15
2024-02-15T09:38:30.183Z,57.01
2024-02-15T09:41:04.207Z,57.21
2024-02-15T09:43:39.290Z,60.43
2024-02-15T09:46:11.265Z,63.05
2024-02-15T09:48:46.017Z,62.25
2024-02-15T09:51:20.322Z,56.65
2024-02-15T09:53:52.828Z,56.95
2024-02-15T09:56:27.221Z,60.04
2024-02-15T09:58:59.629Z,63.14
2024-02-15T10:01:36.696Z,60.30
2024-02-15T10:04:09.559Z,55.22
2024-02-15T10:06:42.655Z,58.06
2024-02-15T10:09:34.450Z,60.51
2024-02-15T10:12:10.822Z,63.61
2024-02-15T10:14:54.779Z,58.97
2024-02-15T10:17:27.612Z,55.95
2024-02-15T10:20:11.551Z,57.70
2024-02-15T10:22:43.485Z,59.67
2024-02-15T10:25:16.473Z,60.88
2024-02-15T10:27:48.655Z,62.04
2024-02-15T10:30:23.338Z,63.16
2024-02-15T10:32:58.055Z,55.50
2024-02-15T10:35:30.455Z,53.73
2024-02-15T10:38:12.088Z,54.36
2024-02-15T10:40:44.711Z,53.71
2024-02-15T10:43:18.366Z,54.64
2024-02-15T10:45:51.283Z,55.70
2024-02-15T10:48:23.258Z,56.69
2024-02-15T10:50:58.411Z,57.45
2024-02-15T10:53:34.881Z,58.55
2024-02-15T10:56:20.845Z,60.36
2024-02-15T10:58:58.326Z,61.55
2024-02-15T11:01:32.332Z,62.98
2024-02-15T11:04:10.038Z,56.83
2024-02-15T11:06:43.282Z,55.54
2024-02-15T11:09:16.809Z,58.10
2024-02-15T11:11:52.254Z,60.40
2024-02-15T11:14:31.167Z,62.07
2024-02-15T11:17:07.885Z,61.72
2024-02-15T11:19:48.473Z,55.84
2024-02-15T11:22:20.682Z,55.37
2024-02-15T11:24:54.240Z,57.72
2024-02-15T11:27:31.006Z,59.19
2024-02-15T11:30:06.243Z,61.01
2024-02-15T11:32:51.254Z,62.19
2024-02-15T11:35:25.663Z,62.28
2024-02-15T11:38:11.341Z,56.26
2024-02-15T11:41:10.529Z,55.45
2024-02-15T11:44:00.016Z,56.92
2024-02-15T11:46:34.058Z,58.18
2024-02-15T11:49:08.690Z,59.01
2024-02-15T11:51:45.220Z,59.80
2024-02-15T11:54:22.616Z,59.24
2024-02-15T11:57:11.699Z,56.00
2024-02-15T11:59:55.276Z,49.75
2024-02-15T12:02:46.483Z,44.46
2024-02-15T12:05:35.736Z,42.50
2024-02-15T12:08:24.033Z,42.67
2024-02-15T12:11:19.887Z,41.42
2024-02-15T12:14:12.987Z,39.19
2024-02-15T12:17:02.684Z,37.86
2024-02-15T12:19:35.981Z,36.75
2024-02-15T12:22:10.305Z,37.40
2024-02-15T12:24:42.452Z,37.88
2024-02-15T12:27:15.765Z,38.48
2024-02-15T12:29:49.062Z,38.58
2024-02-15T12:32:25.954Z,38.63
2024-02-15T12:35:12.201Z,38.99
2024-02-15T12:37:44.111Z,39.89
2024-02-15T12:40:18.732Z,41.29
2024-02-15T12:42:50.878Z,43.07
2024-02-15T12:45:24.017Z,44.15
2024-02-15T12:47:57.165Z,45.26
2024-02-15T12:50:32.131Z,45.82
2024-02-15T12:53:05.013Z,46.34
2024-02-15T12:55:39.424Z,46.87
2024-02-15T12:58:17.673Z,47.02
2024-02-15T13:00:50.471Z,46.05
2024-02-15T13:03:22.529Z,45.02
2024-02-15T13:05:54.677Z,44.79
2024-02-15T13:08:26.787Z,45.11
2024-02-15T13:10:58.729Z,45.76
2024-02-15T13:13:30.760Z,46.63
2024-02-15T13:16:03.199Z,47.63
2024-02-15T13:18:35.260Z,48.82
2024-02-15T13:21:08.046Z,50.51
2024-02-15T13:23:39.956Z,51.18
2024-02-15T13:26:12.777Z,51.65
2024-02-15T13:28:45.542Z,52.01
2024-02-15T13:31:17.956Z,52.54
2024-02-15T13:33:49.940Z,53.02
2024-02-15T13:36:22.331Z,53.82
2024-02-15T13:38:54.229Z,54.37
2024-02-15T13:41:26.153Z,54.92
2024-02-15T13:43:57.965Z,55.56
2024-02-15T13:46:29.874Z,56.07
2024-02-15T13:49:03.080Z,55.82
2024-02-15T13:51:36.301Z,56.29
2024-02-15T13:54:09.465Z,56.76
2024-02-15T13:56:41.531Z,56.85
2024-02-15T13:59:14.522Z,57.00
2024-02-15T14:01:47.074Z,57.49
2024-02-15T14:04:19.051Z,57.76
2024-02-15T14:06:51.302Z,57.81
2024-02-15T14:09:27.576Z,57.94
2024-02-15T14:11:59.747Z,57.84
2024-02-15T14:14:31.727Z,57.50
2024-02-15T14:17:04.204Z,57.35
2024-02-15T14:19:36.070Z,57.51
2024-02-15T14:22:10.705Z,57.62
2024-02-15T14:24:42.572Z,57.61
2024-02-15T14:27:16.104Z,57.68
2024-02-15T14:30:08.874Z,58.00
2024-02-15T14:33:03.746Z,58.11
2024-02-15T14:35:39.332Z,58.45
2024-02-15T14:38:13.310Z,58.63
2024-02-15T14:40:47.300Z,58.47
2024-02-15T14:43:22.312Z,58.15
2024-02-15T14:45:57.981Z,58.38
2024-02-15T14:48:32.755Z,58.13
2024-02-15T14:51:05.837Z,58.01
2024-02-15T14:53:38.386Z,58.16
2024-02-15T14:56:10.547Z,58.37
2024-02-15T14:58:44.386Z,58.68
2024-02-15T15:01:16.265Z,58.96
2024-02-15T15:03:59.465Z,59.28
2024-02-15T15:06:49.322Z,59.32
2024-02-15T15:09:38.934Z,59.19
2024-02-15T15:12:28.599Z,59.34
2024-02-15T15:15:01.472Z,59.26
2024-02-15T15:17:33.520Z,59.72
2024-02-15T15:20:10.270Z,59.64
2024-02-15T15:22:42.225Z,59.49
2024-02-15T15:25:14.421Z,59.51
2024-02-15T15:27:46.797Z,59.67
2024-02-15T15:30:20.148Z,60.03
2024-02-15T15:32:52.125Z,60.16
2024-02-15T15:35:25.070Z,60.25
2024-02-15T15:37:58.653Z,60.67
2024-02-15T15:40:30.579Z,60.93
2024-02-15T15:43:03.943Z,60.95
2024-02-15T15:45:36.784Z,61.20
2024-02-15T15:48:09.351Z,61.35
2024-02-15T15:50:44.336Z,61.27
2024-02-15T15:53:16.465Z,61.61
2024-02-15T15:55:48.355Z,61.98
2024-02-15T15:58:24.397Z,62.16
2024-02-15T16:00:56.618Z,62.35
2024-02-15T16:03:29.746Z,62.02
2024-02-15T16:06:02.066Z,64.55
2024-02-15T16:08:33.999Z,60.96
2024-02-15T16:11:08.030Z,53.97
2024-02-15T16:13:40.180Z,54.01
2024-02-15T16:16:12.078Z,55.16
2024-02-15T16:18:44.651Z,56.19
2024-02-15T16:21:17.199Z,57.43
2024-02-15T16:23:50.425Z,58.10
2024-02-15T16:26:22.819Z,58.68
2024-02-15T16:28:54.660Z,59.32
2024-02-15T16:31:26.659Z,59.76
2024-02-15T16:33:59.118Z,60.09
2024-02-15T16:36:31.124Z,60.61
2024-02-15T16:39:03.024Z,60.51
2024-02-15T16:41:35.104Z,60.80
2024-02-15T16:44:08.122Z,61.31
2024-02-15T16:46:40.092Z,61.52
2024-02-15T16:49:12.145Z,61.92
2024-02-15T16:51:45.298Z,61.67
2024-02-15T16:54:17.230Z,61.49
2024-02-15T16:56:52.470Z,61.88
2024-02-15T16:59:26.197Z,62.22
2024-02-15T17:01:58.149Z,65.73
2024-02-15T17:04:30.514Z,61.49
2024-02-15T17:07:02.652Z,53.40
2024-02-15T17:09:34.570Z,52.50
2024-02-15T17:12:08.942Z,53.79
2024-02-15T17:14:42.426Z,55.06
2024-02-15T17:17:14.620Z,55.93
2024-02-15T17:19:47.542Z,56.27
2024-02-15T17:22:20.744Z,58.30
2024-02-15T17:24:53.492Z,58.58
2024-02-15T17:27:25.427Z,59.00
2024-02-15T17:29:57.476Z,59.37
2024-02-15T17:32:29.566Z,59.52
2024-02-15T17:35:01.613Z,60.27
2024-02-15T17:37:33.667Z,60.56
2024-02-15T17:40:08.282Z,61.22
2024-02-15T17:42:41.509Z,61.76
2024-02-15T17:45:15.061Z,61.61
2024-02-15T17:47:47.856Z,65.54
2024-02-15T17:50:23.457Z,62.97
2024-02-15T17:52:55.842Z,56.16
2024-02-15T17:55:27.986Z,53.41
2024-02-15T17:58:02.456Z,54.82
2024-02-15T18:00:37.623Z,56.70
2024-02-15T18:03:11.711Z,57.12
2024-02-15T18:05:47.840Z,57.86
2024-02-15T18:08:21.149Z,58.39
2024-02-15T18:10:57.603Z,58.52
2024-02-15T18:13:30.272Z,60.00
2024-02-15T18:16:02.197Z,60.39
2024-02-15T18:18:34.241Z,61.26
2024-02-15T18:21:08.213Z,62.39
2024-02-15T18:23:43.909Z,64.27
2024-02-15T18:26:17.786Z,57.96
2024-02-15T18:28:50.257Z,52.63
2024-02-15T18:31:22.096Z,53.86
2024-02-15T18:33:55.599Z,55.89
2024-02-15T18:36:28.130Z,57.39
2024-02-15T18:39:00.907Z,58.60
2024-02-15T18:41:32.889Z,58.57
2024-02-15T18:44:04.802Z,60.06
2024-02-15T18:46:41.517Z,61.64
2024-02-15T18:49:26.340Z,63.92
2024-02-15T18:52:04.127Z,61.52
2024-02-15T18:54:36.113Z,54.19
2024-02-15T18:57:10.325Z,53.28
2024-02-15T18:59:42.333Z,55.00
2024-02-15T19:02:16.036Z,57.02
2024-02-15T19:04:48.851Z,58.11
2024-02-15T19:07:20.709Z,59.35
2024-02-15T19:09:52.683Z,60.45
2024-02-15T19:12:24.685Z,61.46
2024-02-15T19:14:59.696Z,60.91
2024-02-15T19:17:31.673Z,61.48
2024-02-15T19:20:04.524Z,66.29
2024-02-15T19:22:36.596Z,62.21
2024-02-15T19:25:16.849Z,55.14
2024-02-15T19:27:49.575Z,54.10
2024-02-15T19:30:22.415Z,55.78
2024-02-15T19:32:54.987Z,57.37
2024-02-15T19:35:26.986Z,59.50
2024-02-15T19:37:59.364Z,59.74
2024-02-15T19:40:31.297Z,60.28
2024-02-15T19:43:03.243Z,61.10
2024-02-15T19:45:39.960Z,65.52
2024-02-15T19:48:14.236Z,61.72
2024-02-15T19:50:46.453Z,55.59
2024-02-15T19:53:21.438Z,53.93
2024-02-15T19:55:53.819Z,55.36
2024-02-15T19:58:25.813Z,56.69
2024-02-15T20:00:57.758Z,58.65
2024-02-15T20:03:32.248Z,59.25
2024-02-15T20:06:04.332Z,60.10
2024-02-15T20:08:36.804Z,61.32
2024-02-15T20:11:10.939Z,66.51
2024-02-15T20:13:43.265Z,61.91
2024-02-15T20:16:18.504Z,55.19
2024-02-15T20:18:52.103Z,53.97
2024-02-15T20:21:24.590Z,55.70
2024-02-15T20:23:59.728Z,56.80
2024-02-15T20:26:32.057Z,58.35
2024-02-15T20:29:04.162Z,58.89
2024-02-15T20:31:36.088Z,59.89
2024-02-15T20:34:08.229Z,60.23
2024-02-15T20:36:40.171Z,61.49
2024-02-15T20:39:12.151Z,66.33
2024-02-15T20:41:45.240Z,64.94
2024-02-15T20:44:17.294Z,57.25
2024-02-15T20:46:49.197Z,54.51
2024-02-15T20:49:21.208Z,56.34
2024-02-15T20:51:53.269Z,57.50
2024-02-15T20:54:25.233Z,58.20
2024-02-15T20:56:57.202Z,59.48
2024-02-15T20:59:29.158Z,60.41
2024-02-15T21:02:02.203Z,60.64
2024-02-15T21:04:34.123Z,61.29
2024-02-15T21:07:07.046Z,66.34
2024-02-15T21:09:40.857Z,64.24
2024-02-15T21:12:14.756Z,56.95
2024-02-15T21:14:46.890Z,55.03
2024-02-15T21:17:18.815Z,56.68
2024-02-15T21:19:50.766Z,58.40
2024-02-15T21:22:22.678Z,59.53
2024-02-15T21:24:54.542Z,60.99
2024-02-15T21:27:26.838Z,62.01
2024-02-15T21:30:00.345Z,66.23
2024-02-15T21:32:33.556Z,62.75
2024-02-15T21:35:07.158Z,55.43
2024-02-15T21:37:39.193Z,54.62
2024-02-15T21:40:13.650Z,55.89
2024-02-15T21:42:45.569Z,58.32
2024-02-15T21:45:17.652Z,59.96
2024-02-15T21:47:50.012Z,60.78
2024-02-15T21:50:21.914Z,65.03
2024-02-15T21:52:53.813Z,61.35
2024-02-15T21:55:26.661Z,55.45
2024-02-15T21:57:58.588Z,54.91
2024-02-15T22:09:24.408Z,64.93
2024-02-15T22:11:59.824Z,61.49
2024-02-15T22:14:32.144Z,54.72
2024-02-15T22:17:05.690Z,55.23
2024-02-15T22:19:38.795Z,57.93
2024-02-15T22:22:12.784Z,59.99
2024-02-15T22:24:45.501Z,62.47
2024-02-15T22:27:20.109Z,64.21
2024-02-15T22:29:53.486Z,56.95
2024-02-15T22:32:27.467Z,56.03
2024-02-15T22:34:59.824Z,58.17
2024-02-15T22:37:32.273Z,59.54
2024-02-15T22:40:05.890Z,61.91
2024-02-15T22:42:39.059Z,65.33
2024-02-15T22:45:13.331Z,60.93
2024-02-15T22:47:46.606Z,55.53
2024-02-15T22:50:19.214Z,56.24
2024-02-15T22:52:53.645Z,58.34
2024-02-15T22:55:27.406Z,60.82
2024-02-15T22:58:00.340Z,64.70
2024-02-15T23:00:37.689Z,62.26
2024-02-15T23:03:08.908Z,56.54
2024-02-15T23:05:41.299Z,56.39
2024-02-15T23:08:13.620Z,58.55
2024-02-15T23:10:47.240Z,61.18
2024-02-15T23:13:19.498Z,64.85
2024-02-15T23:15:53.286Z,60.36
2024-02-15T23:18:25.852Z,55.88
2024-02-15T23:20:58.334Z,57.17
2024-02-15T23:23:30.649Z,59.74
2024-02-15T23:26:03.059Z,62.93
2024-02-15T23:28:35.418Z,65.34
2024-02-15T23:31:07.902Z,58.97
2024-02-15T23:33:40.746Z,54.62
2024-02-15T23:36:30.893Z,56.57
2024-02-15T23:39:20.816Z,58.98
2024-02-15T23:41:53.160Z,61.21
2024-02-15T23:44:35.064Z,65.62
2024-02-15T23:47:07.688Z,60.53
2024-02-15T23:49:40.018Z,56.22
2024-02-15T23:52:12.272Z,57.28
2024-02-15T23:54:44.693Z,60.04
2024-02-15T23:57:17.566Z,61.08
2024-02-15T23:59:49.902Z,66.46
